La Algaba, Spain
Current Conditions -  °F | °C
As of 5:00 PM on Saturday 20 Dec 2014 (Local Time) from LEMO Reporting Station
Clear Clear  
Wind Chill: 61°   Ceiling: Unl
Heat Index: 61°   Visibility: 6mi
Dew Point: 54°   Wind: 7mph
Humidity: 77%   Direction: 40°NE
Pressure: 30.39"   Gusts: NA
Location:  37.46°N, 6.01°W
Report Text: LEMO 201600Z 04006KT 360V060 CAVOK 16/12 Q1029 NOSIG
Loading
Personal Weather Stations






























Interactive Weather Map New forecast layout! Learn more

10-Day Weather Forecast

Advertisements
Track Severe Weather on mobile